KVDI/VDI METAR and TAF weather

Enter ICAO airport designator
Station Type Date Time Source
KVDI METAR 2018/12/18 19:35 UTC NOAA

KVDI 181935Z AUTO 10005KT 10SM CLR 19/00 A3006 RMK AO2


Station Type Date Time Source
KVDI Decoded METAR 2018/12/18 19:35 UTC NOAA

Vidalia, Vidalia Municipal Airport, GA, United States (KVDI) 32-11-33N 082-22-19W
Dec 18, 2018 - 02:35 PM EST / 2018.12.18 1935 UTC
Wind: from the E (100 degrees) at 6 MPH (5 KT):0
Visibility: 10 mile(s):0
Sky conditions: clear
Temperature: 66 F (19 C)
Dew Point: 32 F (0 C)
Relative Humidity: 27%
Pressure (altimeter): 30.06 in. Hg (1017 hPa)
ob: KVDI 181935Z AUTO 10005KT 10SM CLR 19/00 A3006 RMK AO2
cycle: 19

Station Type Date Time Source
KVDI TAF UTC NOAA

Error!


Example: see airport list